Feuerwehrschule Heliport LOIN

Flugplatz Daten

Name: Feuerwehrschule Heliport

Ident: LOIN

Lat: 47,30916595

Long: 11,05083275

Platzhöhe: 2423 ft

IataCode:

City: Telfs

Metar

2018/10/22 09:00
CYYH 220900Z 06011KT 15SM IC VCFG FEW015 M15/M18 A3016 RMK SC2 FRLOIN SLP219

Taf

Gewünschte Webcam nicht vorhanden? Dann fügen Sie eine hinzu. Sie wird dann so schnell wie möglich freigeschaltet
Url: Title: